Airfield :
LOGIN :

Register | Disclaimer

   EN    FR    IT 

 










Legend :    VFR   Marginal VFR   IFR   Intensive IFR   Very Intensive IFR
Visi :
Ceiling :
>= 8 km
>= 3000ft
5 to 8 km
1000 to 3000 ft
1500m to 5 km
500 to 1000 ft
800 to 1500m
200 to 500 ft
< 800m
< 200 ft
Symbols :   Thunderstorms  Fog  Heavy snow  Heavy precipitations  Wind > 20 kt
SIGMETs :     Misc.  Thunderstorms  Icing  Turbulence  Mountain Waves  Volcanic Ashes







- Airport Elevation : 468 ft
- IATA code : GRO


LEGE - Girona Costa Brava

CURRENT METAR :
  • 180800Z 00000KT 9999 FEW050 SCT070 21/17 Q1019

EXPIRED METARs :
  • 180730Z 20001KT 9999 SCT060 20/17 Q1019
  • 180700Z VRB02KT 9999 BKN060 18/18 Q1019
  • 180630Z 08003KT 020V130 9999 FEW060 18/18 Q1019
  • 180600Z 32003KT 280V030 9999 FEW070 18/16 Q1019
  • 180530Z 30005KT 270V340 9999 FEW090 17/17 Q1019
  • 180500Z 00000KT 9999 FEW090 17/17 Q1019

TAF TAF LEGE
Valid from the 18 at 06:00 until the 19 at 06:00 UTC


180500Z 1806/1906 VRB03KT 9999 SCT030 TX31/1813Z TN16/1806Z
TEMPO 1818/1906 31009KT
PROB40
TEMPO 1812/1816 FEW020CB
No reported NOTAMs for that airfield.
2 SIGMETs reported for the Barcelona FIR (LECB) :
 
Embedded thunderstorms
LECB SIGMET 8 VALID 180800/181000 LEVA
LECB BARCELONA FIR/UIR EMBD TS FCST WI N3924 E00221 - N3952 E00318 - N4015 E00303 - N3951 E00148 - N3924 E00221 TOP FL320 STNR NC=
Embedded thunderstorms
LECB SIGMET 7 VALID 180800/181000 LEVA
LECB BARCELONA FIR/UIR EMBD TS FCST SE OF LINE N3953 E00436 - N3832 E00244 TOP FL400 MOV SE 10KT NC=



MET'MAP, your aeronautical weather chart ! - Copyright ORBIFLY December 2007 - Disclaimer

ORBIFLY MET'MAP TEAM :

Programming & Development : Alexandra Zaïnal
Concept & Development : Baudouin d'Aumeries
Co-Development & Prog : Marc-Olivier Méhu
Technical & hardware support : Manuel Goepfert

Contact : metmap@orbifly.com




SOURCES & CREDITS :

   NOAA